LFRB/BES METAR and TAF weather

Enter ICAO airport designator
Station Type Date Time Source
LFRB METAR 2020/01/26 01:00 UTC NOAA

LFRB 260100Z AUTO 21006KT 6000 BKN006 BKN056 07/07 Q1013 TEMPO 1000 BR BKN012TCU


Station Type Date Time Source
LFRB Decoded METAR 2020/01/26 01:00 UTC NOAA

Brest, France (LFRB) 48-27N 004-25W 103M
Jan 25, 2020 - 08:00 PM EST / 2020.01.26 0100 UTC
Wind: from the SSW (210 degrees) at 7 MPH (6 KT):0
Visibility: 3 mile(s):0
Sky conditions: mostly cloudy
Weather: Towering cumulus clouds observed
Temperature: 44 F (7 C)
Dew Point: 44 F (7 C)
Relative Humidity: 100%
Pressure (altimeter): 29.91 in. Hg (1013 hPa)
ob: LFRB 260100Z AUTO 21006KT 6000 BKN006 BKN056 07/07 Q1013 TEMPO 1000 BR BKN012TCU
cycle: 1

Station Type Date Time Source
LFRB TAF 2020/01/25 18:30 UTC NOAA

TAF
AMD LFRB 251822Z 2518/2624 18004KT 9999 FEW013 BKN043 PROB40
TEMPO 2518/2606 -SHRA BKN012TCU BKN012CB PROB30
TEMPO 2520/2602 1000 BR OVC003
BECMG 2605/2607 20010KT
BECMG 2607/2609 -RA OVC010
TEMPO 2610/2618 4000 RA OVC003
TEMPO 2611/2615 22015G25KT

Example: see airport list